createdAt,value
2019-03-28T00:05:05.916Z,15.28
2019-03-28T00:10:14.246Z,14.83
2019-03-28T00:15:22.538Z,15.32
2019-03-28T00:20:30.778Z,14.77
2019-03-28T00:25:39.141Z,15.73
2019-03-28T00:30:47.335Z,14.40
2019-03-28T00:35:55.729Z,15.04
2019-03-28T00:41:03.864Z,15.82
2019-03-28T00:46:12.058Z,17.11
2019-03-28T00:51:20.241Z,16.35
2019-03-28T00:56:38.087Z,16.93
2019-03-28T01:01:37.843Z,16.26
2019-03-28T01:06:46.129Z,15.32
2019-03-28T01:11:54.437Z,15.30
2019-03-28T01:17:02.797Z,15.97
2019-03-28T01:22:11.082Z,15.89
2019-03-28T01:27:19.226Z,15.34
2019-03-28T01:32:28.247Z,17.40
2019-03-28T01:37:35.246Z,17.62
2019-03-28T01:42:43.490Z,18.19
2019-03-28T01:47:51.811Z,15.32
2019-03-28T01:53:00.026Z,15.44
2019-03-28T01:58:08.253Z,15.80
2019-03-28T02:03:16.510Z,15.75
2019-03-28T02:08:24.963Z,17.99
2019-03-28T02:13:32.968Z,17.43
2019-03-28T02:18:41.207Z,16.50
2019-03-28T02:23:49.657Z,16.80
2019-03-28T02:28:57.856Z,17.51
2019-03-28T02:34:06.442Z,16.87
2019-03-28T02:39:15.750Z,18.86
2019-03-28T02:44:26.925Z,18.33
2019-03-28T02:49:25.351Z,18.31
2019-03-28T02:54:33.696Z,17.50
2019-03-28T02:59:41.857Z,17.72
2019-03-28T03:04:50.025Z,18.45
2019-03-28T03:09:59.424Z,18.14
2019-03-28T03:15:07.801Z,17.45
2019-03-28T03:20:16.098Z,17.12
2019-03-28T03:25:24.599Z,17.01
2019-03-28T03:30:32.804Z,17.58
2019-03-28T03:35:41.063Z,17.78
2019-03-28T03:40:49.253Z,17.72
2019-03-28T03:45:57.551Z,17.82
2019-03-28T03:51:05.788Z,18.16
2019-03-28T03:56:14.042Z,18.76
2019-03-28T04:01:22.301Z,19.05
2019-03-28T04:06:30.493Z,18.82
2019-03-28T04:11:38.720Z,18.97
2019-03-28T04:16:47.202Z,20.40
2019-03-28T04:21:55.452Z,18.35
2019-03-28T04:27:03.710Z,20.34
2019-03-28T04:32:11.897Z,19.81
2019-03-28T04:37:20.279Z,18.93
2019-03-28T04:42:28.473Z,19.85
2019-03-28T04:47:36.609Z,22.07
2019-03-28T04:52:45.554Z,19.99
2019-03-28T04:57:53.429Z,19.12
2019-03-28T05:03:01.686Z,19.49
2019-03-28T05:08:10.009Z,20.23
2019-03-28T05:13:18.310Z,19.94
2019-03-28T05:18:26.502Z,20.04
2019-03-28T05:23:34.786Z,20.51
2019-03-28T05:28:42.970Z,19.74
2019-03-28T05:33:51.286Z,21.86
2019-03-28T05:39:01.806Z,22.38
2019-03-28T05:43:59.987Z,22.81
2019-03-28T05:49:08.375Z,23.19
2019-03-28T05:54:16.828Z,23.19
2019-03-28T05:59:25.150Z,23.68
2019-03-28T06:04:33.256Z,22.30
2019-03-28T06:09:41.582Z,22.97
2019-03-28T06:14:50.003Z,21.29
2019-03-28T06:19:58.217Z,22.70
2019-03-28T06:25:06.514Z,21.78
2019-03-28T06:30:14.839Z,21.17
2019-03-28T06:35:23.953Z,21.39
2019-03-28T06:40:32.283Z,20.14
2019-03-28T06:45:40.731Z,20.69
2019-03-28T06:50:49.018Z,19.70
2019-03-28T06:55:57.430Z,19.01
2019-03-28T07:01:05.798Z,18.99
2019-03-28T07:06:14.551Z,17.87
2019-03-28T07:11:21.981Z,19.03
2019-03-28T07:21:39.076Z,20.09
2019-03-28T07:26:47.345Z,19.58
2019-03-28T07:47:13.360Z,17.31
2019-03-28T08:28:08.030Z,19.19
2019-03-28T08:33:05.370Z,18.12
2019-03-28T08:38:13.744Z,18.16
2019-03-28T08:58:38.474Z,20.87
2019-03-28T09:03:49.712Z,19.80
2019-03-28T09:24:19.486Z,19.66
2019-03-28T09:44:52.715Z,17.62
2019-03-28T09:55:09.570Z,17.71
2019-03-28T10:05:26.281Z,17.54
2019-03-28T10:10:34.582Z,17.53
2019-03-28T10:15:43.937Z,16.40
2019-03-28T10:26:00.865Z,16.85
2019-03-28T10:31:16.357Z,16.58
2019-03-28T10:56:52.472Z,11.21
2019-03-28T11:01:59.065Z,10.83
2019-03-28T11:07:09.452Z,9.45
2019-03-28T11:12:07.720Z,8.84
2019-03-28T11:17:16.006Z,8.84
2019-03-28T11:22:24.411Z,7.68
2019-03-28T11:27:32.801Z,8.20
2019-03-28T11:32:41.405Z,8.04
2019-03-28T11:37:49.532Z,7.49
2019-03-28T11:42:58.926Z,6.63
2019-03-28T11:48:08.464Z,7.04
2019-03-28T11:53:16.775Z,7.29
2019-03-28T11:58:26.101Z,7.70
2019-03-28T12:03:34.620Z,7.12
2019-03-28T12:08:43.146Z,5.98
2019-03-28T12:13:51.697Z,7.06
2019-03-28T12:19:00.199Z,6.91
2019-03-28T12:24:09.018Z,7.32
2019-03-28T12:29:17.366Z,8.06
2019-03-28T12:34:26.152Z,7.66
2019-03-28T12:39:34.815Z,8.53
2019-03-28T12:44:55.997Z,7.93
2019-03-28T12:49:51.269Z,8.93
2019-03-28T13:00:09.566Z,8.34
2019-03-28T13:05:18.140Z,9.64
2019-03-28T13:10:27.447Z,9.22
2019-03-28T13:15:35.945Z,9.00
2019-03-28T13:20:44.447Z,8.90
2019-03-28T13:25:52.577Z,8.58
2019-03-28T13:36:09.171Z,8.21
2019-03-28T13:41:17.889Z,7.23
2019-03-28T13:46:26.202Z,7.17
2019-03-28T13:51:34.535Z,7.82
2019-03-28T13:56:43.213Z,6.37
2019-03-28T14:02:03.100Z,6.22
2019-03-28T14:06:54.749Z,7.30
2019-03-28T14:12:03.296Z,8.05
2019-03-28T14:17:03.392Z,9.69
2019-03-28T14:22:11.852Z,9.40
2019-03-28T14:27:19.995Z,9.27
2019-03-28T14:32:28.762Z,9.77
2019-03-28T14:37:36.588Z,10.24
2019-03-28T14:42:45.100Z,9.85
2019-03-28T14:47:53.590Z,9.33
2019-03-28T14:53:02.184Z,8.68
2019-03-28T14:58:10.649Z,8.85
2019-03-28T15:03:26.356Z,8.49
2019-03-28T15:08:28.690Z,8.85
2019-03-28T15:23:44.393Z,7.29
2019-03-28T15:28:52.646Z,9.52
2019-03-28T15:34:00.857Z,6.96
2019-03-28T15:39:10.003Z,7.38
2019-03-28T15:44:19.695Z,7.29
2019-03-28T15:49:19.945Z,7.49
2019-03-28T15:54:22.841Z,6.79
2019-03-28T15:59:31.070Z,7.33
2019-03-28T16:04:39.464Z,7.64
2019-03-28T16:09:48.704Z,6.58
2019-03-28T16:14:57.045Z,7.60
2019-03-28T16:20:06.083Z,6.58
2019-03-28T16:25:14.530Z,6.63
2019-03-28T16:30:23.136Z,7.09
2019-03-28T16:35:31.437Z,6.73
2019-03-28T16:40:40.043Z,6.42
2019-03-28T16:50:56.652Z,6.01
2019-03-28T16:56:04.858Z,5.40
2019-03-28T17:01:11.878Z,5.44
2019-03-28T17:06:21.605Z,5.47
2019-03-28T17:11:29.838Z,5.26
2019-03-28T17:16:39.102Z,5.26
2019-03-28T17:21:47.361Z,5.84
2019-03-28T17:26:55.653Z,6.64
2019-03-28T17:32:03.978Z,6.10
2019-03-28T17:37:12.345Z,5.38
2019-03-28T17:42:20.555Z,5.87
2019-03-28T17:47:28.745Z,5.91
2019-03-28T17:57:45.562Z,6.47
2019-03-28T18:02:53.950Z,6.27
2019-03-28T18:08:02.227Z,6.40
2019-03-28T18:13:18.750Z,6.56
2019-03-28T18:28:26.713Z,6.19
2019-03-28T18:33:34.939Z,5.78
2019-03-28T18:38:43.424Z,6.09
2019-03-28T18:43:51.675Z,6.16
2019-03-28T18:48:59.774Z,6.46
2019-03-28T18:54:08.011Z,6.09
2019-03-28T18:59:16.523Z,7.46
2019-03-28T19:04:25.782Z,6.86
2019-03-28T19:09:34.032Z,7.15
2019-03-28T19:14:45.979Z,8.61
2019-03-28T19:19:50.383Z,9.83
2019-03-28T19:24:58.889Z,7.69
2019-03-28T19:30:07.377Z,8.52
2019-03-28T19:35:15.713Z,8.37
2019-03-28T19:40:24.318Z,9.06
2019-03-28T19:45:35.649Z,8.55
2019-03-28T19:50:37.518Z,7.98
2019-03-28T19:55:45.765Z,8.18
2019-03-28T20:00:54.764Z,7.68
2019-03-28T20:06:02.983Z,8.42
2019-03-28T20:11:11.286Z,8.60
2019-03-28T20:16:19.650Z,7.91
2019-03-28T20:21:27.754Z,8.24
2019-03-28T20:36:54.066Z,9.79
2019-03-28T20:41:52.362Z,10.00
2019-03-28T20:57:15.086Z,11.47
2019-03-28T21:12:41.429Z,9.41
2019-03-28T21:17:49.569Z,9.53
2019-03-28T21:22:50.054Z,9.54
2019-03-28T21:33:00.247Z,9.89
2019-03-28T21:38:00.501Z,11.09
2019-03-28T22:03:39.667Z,9.81
2019-03-28T22:08:44.170Z,12.22
2019-03-28T22:13:52.341Z,9.51
2019-03-28T22:19:00.674Z,9.64
2019-03-28T22:49:50.806Z,8.27
2019-03-28T23:10:23.805Z,8.34
2019-03-28T23:20:40.470Z,10.27
2019-03-28T23:25:48.670Z,9.73
2019-03-28T23:30:56.922Z,9.38
2019-03-28T23:36:05.150Z,9.04
2019-03-28T23:41:13.516Z,10.23
2019-03-28T23:46:21.711Z,11.27
